Airfield :
LOGIN :

Register | Disclaimer

   EN    FR    IT 

 










Legend :    VFR   Marginal VFR   IFR   Intensive IFR   Very Intensive IFR
Visi :
Ceiling :
>= 8 km
>= 3000ft
5 to 8 km
1000 to 3000 ft
1500m to 5 km
500 to 1000 ft
800 to 1500m
200 to 500 ft
< 800m
< 200 ft
Symbols :   Thunderstorms  Fog  Heavy snow  Heavy precipitations  Wind > 20 kt
SIGMETs :     Misc.  Thunderstorms  Icing  Turbulence  Mountain Waves  Volcanic Ashes







- Airport Elevation : 200 ft


EBBL - Klein Brogel AB

CURRENT METAR :
  • 241625Z AUTO 32006KT 9999 NCD 12/M02 Q1026 BLU

EXPIRED METARs :
  • 241555Z AUTO 30004KT 9999 NCD 12/M02 Q1026 BLU
  • 241525Z AUTO 30004KT 9999 NCD 12/M03 Q1026 BLU
  • 241455Z AUTO 31006KT 9999 NCD 12/M03 Q1027 BLU
  • 241425Z AUTO 35005KT 9999 NCD 12/M02 Q1027 BLU
  • 241355Z AUTO 33007KT 9999 NCD 12/M03 Q1027 BLU

TAF TAF EBBL
Valid from the 24 at 13:00 until the 24 at 22:00 UTC


241141Z 2413/2422 34007KT 9999 FEW025 SCT200
BECMG 2417/2419 30005KT
BECMG 2420/2422 26007KT
No reported NOTAMs for that airfield.



MET'MAP, your aeronautical weather chart ! - Copyright ORBIFLY December 2007 - Disclaimer

ORBIFLY MET'MAP TEAM :

Programming & Development : Alexandra Zaïnal
Concept & Development : Baudouin d'Aumeries
Co-Development & Prog : Marc-Olivier Méhu
Technical & hardware support : Manuel Goepfert

Contact : metmap@orbifly.com




SOURCES & CREDITS :

   NOAA